Pagrindinis puslapis
METAR-TAF:

METAR-TAF

Oro uostai :

Bergamo oro uostas

Bergamas, Italija

platuma: 45-40N, ilguma: 009-42E, Aukštis: 238 m

Dabartinis oras

Ataskaita buvo paskelbta 24 minutes, ne 22:50 UTC
Vėjas 7 kt iš Šiaurės
Temperatūra 10°C
Drėgmė 66%
Slėgis 1029 hPa
Matomumas 10 km arba daugiau
nėra debesų žemiau 1500 m ir nėra kamuolinių lietaus debesų

METAR: LIME 072250Z 01007KT CAVOK 10/04 Q1029 NOSIG

Laikas: 01:14 (23:14 UTC)

Prognozė

Ataskaita buvo paskelbta 6 valandos ir 14 minutes, ne 17:00 UTC
Prognozė galioja nuo 07 metu 18 UTC su 08 metu 18 UTC
Vėjas 5 kt nuo kintamojo kryptimis
Matomumas 10 km arba daugiau
nėra debesų žemiau 1500 m ir nėra kamuolinių lietaus debesų

TAF: LIME 071700Z 0718/0818 VRB05KT CAVOK

Orai ataskaitas ir orų prognozės (METAR, TAF).

turimą stotys yra geltonos ir raudonos taškus žemėlapyje.

Perkelti pele per norėdami pamatyti stoties vardą.

Tada spustelėkite, norėdami matyti oro stebėjimo ir prognozės.

Norėdami pakeisti žemėlapį: spustelėkite ant žalios mygtukų su juodo kryžiaus žemyn,; žalią mygtuką su brūkšneliu, jei norite nutolinti; arba žalių rodyklių gretimoms žemėlapius.


METAR-TAF: